METAR rapporten vliegvelden

   
EHAM - Amsterdam
Gewijzigd: 17-08-2018 03:55
Helder  
Helder  
   Wind: Westen 1.9 km/h
Wind: Westen 1.9 km/h
Temperatuur: 16°C
Dauwpunt: 14°C
Vochtigheid: 88%
Barometer: 1015 hPa
Zicht: meer dan 10 km
Bewolking: Helder
EHAM 170155Z 26001KT CAVOK 16/14 Q1015 NOSIG
EHBK - Maastricht
Gewijzigd: 17-08-2018 03:55
Licht bewolkt  
Licht bewolkt  
   Wind: Noorden 13 km/h
Wind: Noorden 13 km/h
Temperatuur: 18°C
Dauwpunt: 15°C
Vochtigheid: 83%
Barometer: 1016 hPa
Bewolking: Licht bewolkt
Zicht: meer dan 10 km
Bewolking: Licht bewolkt 3100 ft
EHBK 170155Z AUTO 35007KT 310V020 9999 FEW031 18/15 Q1016
ELLX - Luxemburg
Gewijzigd: 17-08-2018 03:50
Helder  
Helder  
   Wind: NNO 13 km/h
Wind: NNO 13 km/h
Temperatuur: 19°C
Dauwpunt: 13°C
Vochtigheid: 68%
Barometer: 1014 hPa
Bewolking: Helder
Zicht: meer dan 10 km
Bewolking: Helder
ELLX 170150Z AUTO 03007KT 9999 NCD 19/13 Q1014 NOSIG
EDDL - Dusseldorf
Gewijzigd: 17-08-2018 03:50
Helder  
Helder  
   Wind: NW 20.4 km/h
Wind: NW 20.4 km/h
Temperatuur: 19°C
Dauwpunt: 15°C
Vochtigheid: 78%
Barometer: 1015 hPa
Zicht: meer dan 10 km
Bewolking: Helder
EDDL 170150Z 32011KT CAVOK 19/15 Q1015 NOSIG
  

Script ontwikkeld door  Saratoga-weather.org Aangepast voor de template door  Weerstation Leuven